sensor_id;sensor_type;location;lat;lon;timestamp;pressure;altitude;pressure_sealevel;temperature;humidity
37486;BME280;23341;50.296;18.960;2023-11-21T00:02:10;52187.72;;;-144.43;100.00
37486;BME280;23341;50.296;18.960;2023-11-21T00:07:16;52155.69;;;-144.43;100.00
37486;BME280;23341;50.296;18.960;2023-11-21T00:12:20;52093.69;;;-144.43;100.00
37486;BME280;23341;50.296;18.960;2023-11-21T00:17:25;52133.69;;;-144.43;100.00
37486;BME280;23341;50.296;18.960;2023-11-21T00:22:31;52135.69;;;-144.43;100.00
37486;BME280;23341;50.296;18.960;2023-11-21T00:27:35;52161.69;;;-144.43;100.00
37486;BME280;23341;50.296;18.960;2023-11-21T00:32:40;52169.72;;;-144.43;100.00
37486;BME280;23341;50.296;18.960;2023-11-21T00:37:46;52183.69;;;-144.43;100.00
37486;BME280;23341;50.296;18.960;2023-11-21T00:42:52;52169.72;;;-144.43;100.00
37486;BME280;23341;50.296;18.960;2023-11-21T00:47:57;52165.69;;;-144.43;100.00
37486;BME280;23341;50.296;18.960;2023-11-21T00:53:03;52173.69;;;-144.43;100.00
37486;BME280;23341;50.296;18.960;2023-11-21T00:58:08;52185.69;;;-144.43;100.00
37486;BME280;23341;50.296;18.960;2023-11-21T01:03:13;52217.72;;;-144.43;100.00
37486;BME280;23341;50.296;18.960;2023-11-21T01:08:19;52181.69;;;-144.43;100.00
37486;BME280;23341;50.296;18.960;2023-11-21T01:13:24;52177.69;;;-144.43;100.00
37486;BME280;23341;50.296;18.960;2023-11-21T01:18:31;52179.69;;;-144.43;100.00
37486;BME280;23341;50.296;18.960;2023-11-21T01:23:37;52145.69;;;-144.43;100.00
37486;BME280;23341;50.296;18.960;2023-11-21T01:28:41;52179.69;;;-144.43;100.00
37486;BME280;23341;50.296;18.960;2023-11-21T01:33:45;52169.72;;;-144.43;100.00
37486;BME280;23341;50.296;18.960;2023-11-21T01:38:51;52147.69;;;-144.43;100.00
37486;BME280;23341;50.296;18.960;2023-11-21T01:43:56;52175.69;;;-144.43;100.00
37486;BME280;23341;50.296;18.960;2023-11-21T01:49:01;52165.69;;;-144.43;100.00
37486;BME280;23341;50.296;18.960;2023-11-21T01:54:07;52115.69;;;-144.43;100.00
37486;BME280;23341;50.296;18.960;2023-11-21T01:59:21;52181.69;;;-144.43;100.00
37486;BME280;23341;50.296;18.960;2023-11-21T02:04:25;52123.69;;;-144.43;100.00
37486;BME280;23341;50.296;18.960;2023-11-21T02:09:32;52141.69;;;-144.43;100.00
37486;BME280;23341;50.296;18.960;2023-11-21T02:14:37;52137.69;;;-144.43;100.00
37486;BME280;23341;50.296;18.960;2023-11-21T02:19:41;52127.69;;;-144.43;100.00
37486;BME280;23341;50.296;18.960;2023-11-21T02:24:47;52101.69;;;-144.43;100.00
37486;BME280;23341;50.296;18.960;2023-11-21T02:29:51;52137.69;;;-144.43;100.00
37486;BME280;23341;50.296;18.960;2023-11-21T02:34:57;52129.69;;;-144.43;100.00
37486;BME280;23341;50.296;18.960;2023-11-21T02:40:08;52097.69;;;-144.43;100.00
37486;BME280;23341;50.296;18.960;2023-11-21T02:45:15;52133.69;;;-144.43;100.00
37486;BME280;23341;50.296;18.960;2023-11-21T02:50:20;52119.69;;;-144.43;100.00
37486;BME280;23341;50.296;18.960;2023-11-21T02:55:28;52097.69;;;-144.43;100.00
37486;BME280;23341;50.296;18.960;2023-11-21T03:00:33;52093.69;;;-144.43;100.00
37486;BME280;23341;50.296;18.960;2023-11-21T03:05:38;52133.69;;;-144.43;100.00
37486;BME280;23341;50.296;18.960;2023-11-21T03:10:44;52125.69;;;-144.43;100.00
37486;BME280;23341;50.296;18.960;2023-11-21T03:15:48;52109.69;;;-144.43;100.00
37486;BME280;23341;50.296;18.960;2023-11-21T03:20:54;52129.69;;;-144.43;100.00
37486;BME280;23341;50.296;18.960;2023-11-21T03:26:00;52119.69;;;-144.43;100.00
37486;BME280;23341;50.296;18.960;2023-11-21T03:31:05;52091.69;;;-144.43;100.00
37486;BME280;23341;50.296;18.960;2023-11-21T03:36:12;52123.69;;;-144.43;100.00
37486;BME280;23341;50.296;18.960;2023-11-21T03:41:19;52121.69;;;-144.43;100.00
37486;BME280;23341;50.296;18.960;2023-11-21T03:46:23;52129.69;;;-144.43;100.00
37486;BME280;23341;50.296;18.960;2023-11-21T03:51:28;52115.69;;;-144.43;100.00
37486;BME280;23341;50.296;18.960;2023-11-21T03:56:34;52129.69;;;-144.43;100.00
37486;BME280;23341;50.296;18.960;2023-11-21T04:01:38;52113.69;;;-144.43;100.00
37486;BME280;23341;50.296;18.960;2023-11-21T04:06:43;52171.69;;;-144.43;100.00
37486;BME280;23341;50.296;18.960;2023-11-21T04:11:49;52099.69;;;-144.43;100.00
37486;BME280;23341;50.296;18.960;2023-11-21T04:16:53;52111.69;;;-144.43;100.00
37486;BME280;23341;50.296;18.960;2023-11-21T04:21:58;52141.69;;;-144.43;100.00
37486;BME280;23341;50.296;18.960;2023-11-21T04:27:04;52117.69;;;-144.43;100.00
37486;BME280;23341;50.296;18.960;2023-11-21T04:32:09;52107.69;;;-144.43;100.00
37486;BME280;23341;50.296;18.960;2023-11-21T04:37:13;52133.69;;;-144.43;100.00
37486;BME280;23341;50.296;18.960;2023-11-21T04:42:19;52141.69;;;-144.43;100.00
37486;BME280;23341;50.296;18.960;2023-11-21T04:47:23;52143.69;;;-144.43;100.00
37486;BME280;23341;50.296;18.960;2023-11-21T04:52:28;52141.69;;;-144.43;100.00
37486;BME280;23341;50.296;18.960;2023-11-21T04:57:34;52145.69;;;-144.43;100.00
37486;BME280;23341;50.296;18.960;2023-11-21T05:02:39;52181.69;;;-144.43;100.00
37486;BME280;23341;50.296;18.960;2023-11-21T05:07:44;52117.69;;;-144.43;100.00
37486;BME280;23341;50.296;18.960;2023-11-21T05:12:50;52117.69;;;-144.43;100.00
37486;BME280;23341;50.296;18.960;2023-11-21T05:17:55;52125.69;;;-144.43;100.00
37486;BME280;23341;50.296;18.960;2023-11-21T05:23:03;52141.69;;;-144.43;100.00
37486;BME280;23341;50.296;18.960;2023-11-21T05:28:09;52105.69;;;-144.43;100.00
37486;BME280;23341;50.296;18.960;2023-11-21T05:33:13;52107.69;;;-144.43;100.00
37486;BME280;23341;50.296;18.960;2023-11-21T05:38:18;52101.69;;;-144.43;100.00
37486;BME280;23341;50.296;18.960;2023-11-21T05:43:26;52109.69;;;-144.43;100.00
37486;BME280;23341;50.296;18.960;2023-11-21T05:48:32;52097.69;;;-144.43;100.00
37486;BME280;23341;50.296;18.960;2023-11-21T05:53:36;52135.69;;;-144.43;100.00
37486;BME280;23341;50.296;18.960;2023-11-21T05:58:42;52123.69;;;-144.43;100.00
37486;BME280;23341;50.296;18.960;2023-11-21T06:03:47;52165.69;;;-144.43;100.00
37486;BME280;23341;50.296;18.960;2023-11-21T06:08:52;52141.69;;;-144.43;100.00
37486;BME280;23341;50.296;18.960;2023-11-21T06:13:58;52133.69;;;-144.43;100.00
37486;BME280;23341;50.296;18.960;2023-11-21T06:19:03;52153.69;;;-144.43;100.00
37486;BME280;23341;50.296;18.960;2023-11-21T06:24:08;52121.69;;;-144.43;100.00
37486;BME280;23341;50.296;18.960;2023-11-21T06:29:14;52173.69;;;-144.43;100.00
37486;BME280;23341;50.296;18.960;2023-11-21T06:34:18;52163.69;;;-144.43;100.00
37486;BME280;23341;50.296;18.960;2023-11-21T06:39:24;52131.69;;;-144.43;100.00
37486;BME280;23341;50.296;18.960;2023-11-21T06:44:30;52121.69;;;-144.43;100.00
37486;BME280;23341;50.296;18.960;2023-11-21T06:49:36;52091.69;;;-144.43;100.00
37486;BME280;23341;50.296;18.960;2023-11-21T06:54:41;52165.69;;;-144.43;100.00
37486;BME280;23341;50.296;18.960;2023-11-21T06:59:47;52127.69;;;-144.43;100.00
37486;BME280;23341;50.296;18.960;2023-11-21T07:04:51;52145.69;;;-144.43;100.00
37486;BME280;23341;50.296;18.960;2023-11-21T07:09:55;52153.69;;;-144.43;100.00
37486;BME280;23341;50.296;18.960;2023-11-21T07:15:02;52109.69;;;-144.43;100.00
37486;BME280;23341;50.296;18.960;2023-11-21T07:20:09;52153.69;;;-144.43;100.00
37486;BME280;23341;50.296;18.960;2023-11-21T07:25:14;52155.69;;;-144.43;100.00
37486;BME280;23341;50.296;18.960;2023-11-21T07:30:20;52117.69;;;-144.43;100.00
37486;BME280;23341;50.296;18.960;2023-11-21T07:35:25;52133.69;;;-144.43;100.00
37486;BME280;23341;50.296;18.960;2023-11-21T07:40:29;52159.69;;;-144.43;100.00
37486;BME280;23341;50.296;18.960;2023-11-21T07:45:36;52179.69;;;-144.43;100.00
37486;BME280;23341;50.296;18.960;2023-11-21T07:50:40;52141.69;;;-144.43;100.00
37486;BME280;23341;50.296;18.960;2023-11-21T07:55:45;52149.69;;;-144.43;100.00
37486;BME280;23341;50.296;18.960;2023-11-21T08:00:51;52149.69;;;-144.43;100.00
37486;BME280;23341;50.296;18.960;2023-11-21T08:05:56;52141.69;;;-144.43;100.00
37486;BME280;23341;50.296;18.960;2023-11-21T08:11:00;52123.69;;;-144.43;100.00
37486;BME280;23341;50.296;18.960;2023-11-21T08:16:08;52093.69;;;-144.43;100.00
37486;BME280;23341;50.296;18.960;2023-11-21T08:21:14;52161.69;;;-144.43;100.00
37486;BME280;23341;50.296;18.960;2023-11-21T08:26:18;52113.69;;;-144.43;100.00
37486;BME280;23341;50.296;18.960;2023-11-21T08:31:27;52119.69;;;-144.43;100.00
37486;BME280;23341;50.296;18.960;2023-11-21T08:36:32;52131.69;;;-144.43;100.00
37486;BME280;23341;50.296;18.960;2023-11-21T08:41:37;52127.69;;;-144.43;100.00
37486;BME280;23341;50.296;18.960;2023-11-21T08:46:42;52161.69;;;-144.43;100.00
37486;BME280;23341;50.296;18.960;2023-11-21T08:51:48;52199.72;;;-144.43;100.00
37486;BME280;23341;50.296;18.960;2023-11-21T08:56:53;52179.69;;;-144.43;100.00
37486;BME280;23341;50.296;18.960;2023-11-21T09:01:59;52213.72;;;-144.43;100.00
37486;BME280;23341;50.296;18.960;2023-11-21T09:07:03;52207.72;;;-144.43;100.00
37486;BME280;23341;50.296;18.960;2023-11-21T09:12:08;52233.72;;;-144.43;100.00
37486;BME280;23341;50.296;18.960;2023-11-21T09:17:16;52197.72;;;-144.43;100.00
37486;BME280;23341;50.296;18.960;2023-11-21T09:22:21;52193.72;;;-144.43;100.00
37486;BME280;23341;50.296;18.960;2023-11-21T09:27:27;52253.72;;;-144.43;100.00
37486;BME280;23341;50.296;18.960;2023-11-21T09:32:34;52249.72;;;-144.43;100.00
37486;BME280;23341;50.296;18.960;2023-11-21T09:37:40;52235.72;;;-144.43;100.00
37486;BME280;23341;50.296;18.960;2023-11-21T09:42:50;52293.72;;;-144.43;100.00
37486;BME280;23341;50.296;18.960;2023-11-21T09:47:59;52275.72;;;-144.43;100.00
37486;BME280;23341;50.296;18.960;2023-11-21T09:53:11;52241.72;;;-144.43;100.00
37486;BME280;23341;50.296;18.960;2023-11-21T09:58:18;52237.72;;;-144.43;100.00
37486;BME280;23341;50.296;18.960;2023-11-21T10:03:26;52195.72;;;-144.43;100.00
37486;BME280;23341;50.296;18.960;2023-11-21T10:08:31;52197.72;;;-144.43;100.00
37486;BME280;23341;50.296;18.960;2023-11-21T10:13:52;52215.72;;;-144.43;100.00
37486;BME280;23341;50.296;18.960;2023-11-21T10:18:59;52143.69;;;-144.43;100.00
37486;BME280;23341;50.296;18.960;2023-11-21T10:24:13;52143.69;;;-144.43;100.00
37486;BME280;23341;50.296;18.960;2023-11-21T10:29:18;52127.69;;;-144.43;100.00
37486;BME280;23341;50.296;18.960;2023-11-21T10:34:26;52141.69;;;-144.43;100.00
37486;BME280;23341;50.296;18.960;2023-11-21T10:39:32;52101.69;;;-144.43;100.00
37486;BME280;23341;50.296;18.960;2023-11-21T10:44:37;52133.69;;;-144.43;100.00
37486;BME280;23341;50.296;18.960;2023-11-21T10:49:43;52101.69;;;-144.43;100.00
37486;BME280;23341;50.296;18.960;2023-11-21T10:54:48;52099.69;;;-144.43;100.00
37486;BME280;23341;50.296;18.960;2023-11-21T10:59:54;52129.69;;;-144.43;100.00
37486;BME280;23341;50.296;18.960;2023-11-21T11:05:00;52183.69;;;-144.43;100.00
37486;BME280;23341;50.296;18.960;2023-11-21T11:10:06;52185.69;;;-144.43;100.00
37486;BME280;23341;50.296;18.960;2023-11-21T11:15:17;52195.72;;;-144.43;100.00
37486;BME280;23341;50.296;18.960;2023-11-21T11:20:29;52187.72;;;-144.43;100.00
37486;BME280;23341;50.296;18.960;2023-11-21T11:25:52;52171.69;;;-144.43;100.00
37486;BME280;23341;50.296;18.960;2023-11-21T11:31:05;52253.72;;;-144.43;100.00
37486;BME280;23341;50.296;18.960;2023-11-21T11:36:21;52271.72;;;-144.43;100.00
37486;BME280;23341;50.296;18.960;2023-11-21T11:41:27;52253.72;;;-144.43;100.00
37486;BME280;23341;50.296;18.960;2023-11-21T11:46:42;52185.69;;;-144.43;100.00
37486;BME280;23341;50.296;18.960;2023-11-21T11:57:35;52157.69;;;-144.43;100.00
37486;BME280;23341;50.296;18.960;2023-11-21T12:02:40;52137.69;;;-144.43;100.00
37486;BME280;23341;50.296;18.960;2023-11-21T12:07:48;52149.69;;;-144.43;100.00
37486;BME280;23341;50.296;18.960;2023-11-21T12:12:54;52121.69;;;-144.43;100.00
37486;BME280;23341;50.296;18.960;2023-11-21T12:17:59;52153.69;;;-144.43;100.00
37486;BME280;23341;50.296;18.960;2023-11-21T12:23:05;52153.69;;;-144.43;100.00
37486;BME280;23341;50.296;18.960;2023-11-21T12:28:12;52109.69;;;-144.43;100.00
37486;BME280;23341;50.296;18.960;2023-11-21T12:33:17;52081.69;;;-144.43;100.00
37486;BME280;23341;50.296;18.960;2023-11-21T12:38:23;52149.69;;;-144.43;100.00
37486;BME280;23341;50.296;18.960;2023-11-21T12:43:28;52141.69;;;-144.43;100.00
37486;BME280;23341;50.296;18.960;2023-11-21T12:48:37;52133.69;;;-144.43;100.00
37486;BME280;23341;50.296;18.960;2023-11-21T12:53:43;52109.69;;;-144.43;100.00
37486;BME280;23341;50.296;18.960;2023-11-21T12:58:48;52083.69;;;-144.43;100.00
37486;BME280;23341;50.296;18.960;2023-11-21T13:03:56;52101.69;;;-144.43;100.00
37486;BME280;23341;50.296;18.960;2023-11-21T13:09:03;52125.69;;;-144.43;100.00
37486;BME280;23341;50.296;18.960;2023-11-21T13:14:08;52125.69;;;-144.43;100.00
37486;BME280;23341;50.296;18.960;2023-11-21T13:19:15;52123.69;;;-144.43;100.00
37486;BME280;23341;50.296;18.960;2023-11-21T13:24:20;52107.69;;;-144.43;100.00
37486;BME280;23341;50.296;18.960;2023-11-21T13:29:25;52115.69;;;-144.43;100.00
37486;BME280;23341;50.296;18.960;2023-11-21T13:34:30;52125.69;;;-144.43;100.00
37486;BME280;23341;50.296;18.960;2023-11-21T13:39:37;52093.69;;;-144.43;100.00
37486;BME280;23341;50.296;18.960;2023-11-21T13:44:47;52115.69;;;-144.43;100.00
37486;BME280;23341;50.296;18.960;2023-11-21T13:49:53;52129.69;;;-144.43;100.00
37486;BME280;23341;50.296;18.960;2023-11-21T13:54:59;52107.69;;;-144.43;100.00
37486;BME280;23341;50.296;18.960;2023-11-21T14:00:10;52107.69;;;-144.43;100.00
37486;BME280;23341;50.296;18.960;2023-11-21T14:05:35;52061.69;;;-144.43;100.00
37486;BME280;23341;50.296;18.960;2023-11-21T14:10:41;52117.69;;;-144.43;100.00
37486;BME280;23341;50.296;18.960;2023-11-21T14:15:46;52105.69;;;-144.43;100.00
37486;BME280;23341;50.296;18.960;2023-11-21T14:20:54;52113.69;;;-144.43;100.00
37486;BME280;23341;50.296;18.960;2023-11-21T14:26:00;52115.69;;;-144.43;100.00
37486;BME280;23341;50.296;18.960;2023-11-21T14:31:05;52097.69;;;-144.43;100.00
37486;BME280;23341;50.296;18.960;2023-11-21T14:36:10;52113.69;;;-144.43;100.00
37486;BME280;23341;50.296;18.960;2023-11-21T14:41:16;52143.69;;;-144.43;100.00
37486;BME280;23341;50.296;18.960;2023-11-21T14:46:21;52151.69;;;-144.43;100.00
37486;BME280;23341;50.296;18.960;2023-11-21T14:51:25;52111.69;;;-144.43;100.00
37486;BME280;23341;50.296;18.960;2023-11-21T14:56:32;52141.69;;;-144.43;100.00
37486;BME280;23341;50.296;18.960;2023-11-21T15:01:37;52157.69;;;-144.43;100.00
37486;BME280;23341;50.296;18.960;2023-11-21T15:06:50;52149.69;;;-144.43;100.00
37486;BME280;23341;50.296;18.960;2023-11-21T15:11:57;52165.69;;;-144.43;100.00
37486;BME280;23341;50.296;18.960;2023-11-21T15:17:10;52127.69;;;-144.43;100.00
37486;BME280;23341;50.296;18.960;2023-11-21T15:22:16;52181.69;;;-144.43;100.00
37486;BME280;23341;50.296;18.960;2023-11-21T15:27:23;52179.69;;;-144.43;100.00
37486;BME280;23341;50.296;18.960;2023-11-21T15:32:31;52175.69;;;-144.43;100.00
37486;BME280;23341;50.296;18.960;2023-11-21T15:37:35;52179.69;;;-144.43;100.00
37486;BME280;23341;50.296;18.960;2023-11-21T15:42:42;52173.69;;;-144.43;100.00
37486;BME280;23341;50.296;18.960;2023-11-21T15:47:46;52195.72;;;-144.43;100.00
37486;BME280;23341;50.296;18.960;2023-11-21T15:52:51;52199.72;;;-144.43;100.00
37486;BME280;23341;50.296;18.960;2023-11-21T15:58:01;52209.72;;;-144.43;100.00
37486;BME280;23341;50.296;18.960;2023-11-21T16:03:07;52201.69;;;-144.43;100.00
37486;BME280;23341;50.296;18.960;2023-11-21T16:08:13;52201.69;;;-144.43;100.00
37486;BME280;23341;50.296;18.960;2023-11-21T16:13:19;52195.72;;;-144.43;100.00
37486;BME280;23341;50.296;18.960;2023-11-21T16:18:23;52183.69;;;-144.43;100.00
37486;BME280;23341;50.296;18.960;2023-11-21T16:23:29;52233.72;;;-144.43;100.00
37486;BME280;23341;50.296;18.960;2023-11-21T16:28:35;52157.69;;;-144.43;100.00
37486;BME280;23341;50.296;18.960;2023-11-21T16:33:40;52157.69;;;-144.43;100.00
37486;BME280;23341;50.296;18.960;2023-11-21T16:38:44;52089.69;;;-144.43;100.00
37486;BME280;23341;50.296;18.960;2023-11-21T16:43:50;52073.69;;;-144.43;100.00
37486;BME280;23341;50.296;18.960;2023-11-21T16:48:55;52001.69;;;-144.43;100.00
37486;BME280;23341;50.296;18.960;2023-11-21T16:54:00;52001.69;;;-144.43;100.00
37486;BME280;23341;50.296;18.960;2023-11-21T16:59:06;51983.69;;;-144.43;100.00
37486;BME280;23341;50.296;18.960;2023-11-21T17:04:12;51949.69;;;-144.43;100.00
37486;BME280;23341;50.296;18.960;2023-11-21T17:09:18;51899.72;;;-144.43;100.00
37486;BME280;23341;50.296;18.960;2023-11-21T17:14:24;51893.72;;;-144.43;100.00
37486;BME280;23341;50.296;18.960;2023-11-21T17:19:29;51895.72;;;-144.43;100.00
37486;BME280;23341;50.296;18.960;2023-11-21T17:24:36;51841.72;;;-144.43;100.00
37486;BME280;23341;50.296;18.960;2023-11-21T17:29:42;51863.72;;;-144.43;100.00
37486;BME280;23341;50.296;18.960;2023-11-21T17:34:47;51891.72;;;-144.43;100.00
37486;BME280;23341;50.296;18.960;2023-11-21T17:39:52;51867.72;;;-144.43;100.00
37486;BME280;23341;50.296;18.960;2023-11-21T17:44:59;51831.72;;;-144.43;100.00
37486;BME280;23341;50.296;18.960;2023-11-21T17:50:05;51833.72;;;-144.43;100.00
37486;BME280;23341;50.296;18.960;2023-11-21T17:55:09;51825.72;;;-144.43;100.00
37486;BME280;23341;50.296;18.960;2023-11-21T18:00:16;51757.72;;;-144.43;100.00
37486;BME280;23341;50.296;18.960;2023-11-21T18:05:21;51771.72;;;-144.43;100.00
37486;BME280;23341;50.296;18.960;2023-11-21T18:10:26;51759.72;;;-144.43;100.00
37486;BME280;23341;50.296;18.960;2023-11-21T18:15:32;51719.72;;;-144.43;100.00
37486;BME280;23341;50.296;18.960;2023-11-21T18:20:37;51705.72;;;-144.43;100.00
37486;BME280;23341;50.296;18.960;2023-11-21T18:25:41;51721.72;;;-144.43;100.00
37486;BME280;23341;50.296;18.960;2023-11-21T18:30:48;51709.72;;;-144.43;100.00
37486;BME280;23341;50.296;18.960;2023-11-21T18:35:53;51677.72;;;-144.43;100.00
37486;BME280;23341;50.296;18.960;2023-11-21T18:40:58;51677.72;;;-144.43;100.00
37486;BME280;23341;50.296;18.960;2023-11-21T18:46:04;51693.72;;;-144.43;100.00
37486;BME280;23341;50.296;18.960;2023-11-21T18:51:09;51643.72;;;-144.43;100.00
37486;BME280;23341;50.296;18.960;2023-11-21T18:56:19;51637.72;;;-144.43;100.00
37486;BME280;23341;50.296;18.960;2023-11-21T19:01:29;51637.72;;;-144.43;100.00
37486;BME280;23341;50.296;18.960;2023-11-21T19:06:34;51641.72;;;-144.43;100.00
37486;BME280;23341;50.296;18.960;2023-11-21T19:11:39;51627.72;;;-144.43;100.00
37486;BME280;23341;50.296;18.960;2023-11-21T19:16:45;51617.72;;;-144.43;100.00
37486;BME280;23341;50.296;18.960;2023-11-21T19:21:52;51653.72;;;-144.43;100.00
37486;BME280;23341;50.296;18.960;2023-11-21T19:26:56;51609.72;;;-144.43;100.00
37486;BME280;23341;50.296;18.960;2023-11-21T19:32:03;51605.72;;;-144.43;100.00
37486;BME280;23341;50.296;18.960;2023-11-21T19:37:08;51585.72;;;-144.43;100.00
37486;BME280;23341;50.296;18.960;2023-11-21T19:42:14;51593.72;;;-144.43;100.00
37486;BME280;23341;50.296;18.960;2023-11-21T19:47:19;51627.72;;;-144.43;100.00
37486;BME280;23341;50.296;18.960;2023-11-21T19:52:25;51603.72;;;-144.43;100.00
37486;BME280;23341;50.296;18.960;2023-11-21T19:57:29;51585.72;;;-144.43;100.00
37486;BME280;23341;50.296;18.960;2023-11-21T20:02:35;51603.72;;;-144.43;100.00
37486;BME280;23341;50.296;18.960;2023-11-21T20:07:40;51561.72;;;-144.43;100.00
37486;BME280;23341;50.296;18.960;2023-11-21T20:12:45;51555.72;;;-144.43;100.00
37486;BME280;23341;50.296;18.960;2023-11-21T20:18:02;51593.72;;;-144.43;100.00
37486;BME280;23341;50.296;18.960;2023-11-21T20:23:07;51549.72;;;-144.43;100.00
37486;BME280;23341;50.296;18.960;2023-11-21T20:28:11;51515.75;;;-144.43;100.00
37486;BME280;23341;50.296;18.960;2023-11-21T20:33:17;51553.72;;;-144.43;100.00
37486;BME280;23341;50.296;18.960;2023-11-21T20:38:22;51539.75;;;-144.43;100.00
37486;BME280;23341;50.296;18.960;2023-11-21T20:43:26;51545.75;;;-144.43;100.00
37486;BME280;23341;50.296;18.960;2023-11-21T20:48:32;51501.75;;;-144.43;100.00
37486;BME280;23341;50.296;18.960;2023-11-21T20:53:37;51537.75;;;-144.43;100.00
37486;BME280;23341;50.296;18.960;2023-11-21T20:58:42;51523.75;;;-144.43;100.00
37486;BME280;23341;50.296;18.960;2023-11-21T21:03:48;51509.75;;;-144.43;100.00
37486;BME280;23341;50.296;18.960;2023-11-21T21:08:53;51547.75;;;-144.43;100.00
37486;BME280;23341;50.296;18.960;2023-11-21T21:13:57;51533.75;;;-144.43;100.00
37486;BME280;23341;50.296;18.960;2023-11-21T21:19:03;51483.75;;;-144.43;100.00
37486;BME280;23341;50.296;18.960;2023-11-21T21:24:08;51481.75;;;-144.43;100.00
37486;BME280;23341;50.296;18.960;2023-11-21T21:29:13;51505.75;;;-144.43;100.00
37486;BME280;23341;50.296;18.960;2023-11-21T21:34:19;51483.75;;;-144.43;100.00
37486;BME280;23341;50.296;18.960;2023-11-21T21:39:23;51497.75;;;-144.43;100.00
37486;BME280;23341;50.296;18.960;2023-11-21T21:44:28;51467.75;;;-144.43;100.00
37486;BME280;23341;50.296;18.960;2023-11-21T21:49:34;51493.75;;;-144.43;100.00
37486;BME280;23341;50.296;18.960;2023-11-21T21:54:40;51493.75;;;-144.43;100.00
37486;BME280;23341;50.296;18.960;2023-11-21T21:59:44;51491.75;;;-144.43;100.00
37486;BME280;23341;50.296;18.960;2023-11-21T22:04:54;51453.75;;;-144.43;100.00
37486;BME280;23341;50.296;18.960;2023-11-21T22:09:58;51457.75;;;-144.43;100.00
37486;BME280;23341;50.296;18.960;2023-11-21T22:15:03;51473.75;;;-144.43;100.00
37486;BME280;23341;50.296;18.960;2023-11-21T22:20:11;51461.75;;;-144.43;100.00
37486;BME280;23341;50.296;18.960;2023-11-21T22:25:15;51461.75;;;-144.43;100.00
37486;BME280;23341;50.296;18.960;2023-11-21T22:30:20;51435.75;;;-144.43;100.00
37486;BME280;23341;50.296;18.960;2023-11-21T22:35:28;51445.75;;;-144.43;100.00
37486;BME280;23341;50.296;18.960;2023-11-21T22:40:33;51409.75;;;-144.43;100.00
37486;BME280;23341;50.296;18.960;2023-11-21T22:45:38;51435.75;;;-144.43;100.00
37486;BME280;23341;50.296;18.960;2023-11-21T22:50:44;51461.75;;;-144.43;100.00
37486;BME280;23341;50.296;18.960;2023-11-21T22:55:50;51479.75;;;-144.43;100.00
37486;BME280;23341;50.296;18.960;2023-11-21T23:00:55;51453.75;;;-144.43;100.00
37486;BME280;23341;50.296;18.960;2023-11-21T23:06:02;51435.75;;;-144.43;100.00
37486;BME280;23341;50.296;18.960;2023-11-21T23:11:07;51465.75;;;-144.43;100.00
37486;BME280;23341;50.296;18.960;2023-11-21T23:16:11;51455.75;;;-144.43;100.00
37486;BME280;23341;50.296;18.960;2023-11-21T23:21:21;51425.75;;;-144.43;100.00
37486;BME280;23341;50.296;18.960;2023-11-21T23:26:26;51467.75;;;-144.43;100.00
37486;BME280;23341;50.296;18.960;2023-11-21T23:31:30;51415.75;;;-144.43;100.00
37486;BME280;23341;50.296;18.960;2023-11-21T23:36:36;51417.75;;;-144.43;100.00
37486;BME280;23341;50.296;18.960;2023-11-21T23:41:41;51437.75;;;-144.43;100.00
37486;BME280;23341;50.296;18.960;2023-11-21T23:46:46;51409.75;;;-144.43;100.00
37486;BME280;23341;50.296;18.960;2023-11-21T23:51:52;51425.75;;;-144.43;100.00
37486;BME280;23341;50.296;18.960;2023-11-21T23:56:56;51415.75;;;-144.43;100.00
